sensor_id;sensor_type;location;lat;lon;timestamp;temperature;humidity
54680;DHT22;40578;53.178;5.846;2022-10-31T00:01:17;11.60;99.90
54680;DHT22;40578;53.178;5.846;2022-10-31T00:03:44;11.00;99.90
54680;DHT22;40578;53.178;5.846;2022-10-31T00:06:09;11.10;99.90
54680;DHT22;40578;53.178;5.846;2022-10-31T00:08:35;11.00;99.90
54680;DHT22;40578;53.178;5.846;2022-10-31T00:11:01;11.50;99.90
54680;DHT22;40578;53.178;5.846;2022-10-31T00:13:26;11.50;99.90
54680;DHT22;40578;53.178;5.846;2022-10-31T00:15:52;11.30;99.90
54680;DHT22;40578;53.178;5.846;2022-10-31T00:18:18;11.60;99.90
54680;DHT22;40578;53.178;5.846;2022-10-31T00:20:43;11.10;99.90
54680;DHT22;40578;53.178;5.846;2022-10-31T00:23:10;11.30;99.90
54680;DHT22;40578;53.178;5.846;2022-10-31T00:25:38;10.90;99.90
54680;DHT22;40578;53.178;5.846;2022-10-31T00:28:05;11.60;99.90
54680;DHT22;40578;53.178;5.846;2022-10-31T00:30:31;11.40;99.90
54680;DHT22;40578;53.178;5.846;2022-10-31T00:32:56;11.50;99.90
54680;DHT22;40578;53.178;5.846;2022-10-31T00:35:22;10.80;99.90
54680;DHT22;40578;53.178;5.846;2022-10-31T00:37:48;11.60;99.90
54680;DHT22;40578;53.178;5.846;2022-10-31T00:40:13;11.40;99.90
54680;DHT22;40578;53.178;5.846;2022-10-31T00:42:40;11.10;99.90
54680;DHT22;40578;53.178;5.846;2022-10-31T00:45:08;11.50;99.90
54680;DHT22;40578;53.178;5.846;2022-10-31T00:47:34;11.60;99.90
54680;DHT22;40578;53.178;5.846;2022-10-31T00:49:59;11.20;99.90
54680;DHT22;40578;53.178;5.846;2022-10-31T00:52:25;11.70;99.90
54680;DHT22;40578;53.178;5.846;2022-10-31T00:54:50;11.10;99.90
54680;DHT22;40578;53.178;5.846;2022-10-31T00:57:16;11.60;99.90
54680;DHT22;40578;53.178;5.846;2022-10-31T00:59:42;10.90;99.90
54680;DHT22;40578;53.178;5.846;2022-10-31T01:02:07;10.80;99.90
54680;DHT22;40578;53.178;5.846;2022-10-31T01:04:33;11.40;99.90
54680;DHT22;40578;53.178;5.846;2022-10-31T01:06:58;11.60;99.90
54680;DHT22;40578;53.178;5.846;2022-10-31T01:09:24;10.70;99.90
54680;DHT22;40578;53.178;5.846;2022-10-31T01:11:49;11.60;99.90
54680;DHT22;40578;53.178;5.846;2022-10-31T01:14:15;11.00;99.90
54680;DHT22;40578;53.178;5.846;2022-10-31T01:16:41;11.60;99.90
54680;DHT22;40578;53.178;5.846;2022-10-31T01:19:06;11.30;99.90
54680;DHT22;40578;53.178;5.846;2022-10-31T01:21:33;11.00;99.90
54680;DHT22;40578;53.178;5.846;2022-10-31T01:23:59;11.20;99.90
54680;DHT22;40578;53.178;5.846;2022-10-31T01:26:27;10.40;99.90
54680;DHT22;40578;53.178;5.846;2022-10-31T01:28:58;10.60;99.90
54680;DHT22;40578;53.178;5.846;2022-10-31T01:31:28;11.20;99.90
54680;DHT22;40578;53.178;5.846;2022-10-31T01:33:55;11.10;99.90
54680;DHT22;40578;53.178;5.846;2022-10-31T01:36:26;10.70;99.90
54680;DHT22;40578;53.178;5.846;2022-10-31T01:38:54;10.90;99.90
54680;DHT22;40578;53.178;5.846;2022-10-31T01:41:23;10.50;99.90
54680;DHT22;40578;53.178;5.846;2022-10-31T01:43:56;10.40;99.90
54680;DHT22;40578;53.178;5.846;2022-10-31T01:46:25;11.10;99.90
54680;DHT22;40578;53.178;5.846;2022-10-31T01:48:53;11.20;99.90
54680;DHT22;40578;53.178;5.846;2022-10-31T01:51:22;10.70;99.90
54680;DHT22;40578;53.178;5.846;2022-10-31T01:53:49;10.40;99.90
54680;DHT22;40578;53.178;5.846;2022-10-31T01:56:17;11.00;99.90
54680;DHT22;40578;53.178;5.846;2022-10-31T01:58:45;10.50;99.90
54680;DHT22;40578;53.178;5.846;2022-10-31T02:01:13;10.50;99.90
54680;DHT22;40578;53.178;5.846;2022-10-31T02:03:39;10.60;99.90
54680;DHT22;40578;53.178;5.846;2022-10-31T02:06:09;11.10;99.90
54680;DHT22;40578;53.178;5.846;2022-10-31T02:08:37;11.10;99.90
54680;DHT22;40578;53.178;5.846;2022-10-31T02:11:05;10.40;99.90
54680;DHT22;40578;53.178;5.846;2022-10-31T02:13:34;10.50;99.90
54680;DHT22;40578;53.178;5.846;2022-10-31T02:16:00;10.20;99.90
54680;DHT22;40578;53.178;5.846;2022-10-31T02:18:29;10.20;99.90
54680;DHT22;40578;53.178;5.846;2022-10-31T02:21:11;10.40;99.90
54680;DHT22;40578;53.178;5.846;2022-10-31T02:26:52;10.60;99.90
54680;DHT22;40578;53.178;5.846;2022-10-31T02:35:08;10.50;99.90
54680;DHT22;40578;53.178;5.846;2022-10-31T02:37:40;10.20;99.90
54680;DHT22;40578;53.178;5.846;2022-10-31T02:40:25;10.00;99.90
54680;DHT22;40578;53.178;5.846;2022-10-31T02:43:12;10.60;99.90
54680;DHT22;40578;53.178;5.846;2022-10-31T02:45:58;10.60;99.90
54680;DHT22;40578;53.178;5.846;2022-10-31T02:48:28;10.50;99.90
54680;DHT22;40578;53.178;5.846;2022-10-31T02:51:01;11.20;99.90
54680;DHT22;40578;53.178;5.846;2022-10-31T02:53:35;10.00;99.90
54680;DHT22;40578;53.178;5.846;2022-10-31T02:56:17;10.50;99.90
54680;DHT22;40578;53.178;5.846;2022-10-31T02:58:54;9.80;99.90
54680;DHT22;40578;53.178;5.846;2022-10-31T03:04:16;10.10;99.90
54680;DHT22;40578;53.178;5.846;2022-10-31T03:09:34;10.30;99.90
54680;DHT22;40578;53.178;5.846;2022-10-31T03:12:26;9.60;99.90
54680;DHT22;40578;53.178;5.846;2022-10-31T03:17:39;10.00;99.90
54680;DHT22;40578;53.178;5.846;2022-10-31T03:20:09;9.40;99.90
54680;DHT22;40578;53.178;5.846;2022-10-31T03:22:37;9.20;99.90
54680;DHT22;40578;53.178;5.846;2022-10-31T03:25:05;9.80;99.90
54680;DHT22;40578;53.178;5.846;2022-10-31T03:27:34;9.90;99.90
54680;DHT22;40578;53.178;5.846;2022-10-31T03:30:03;9.40;99.90
54680;DHT22;40578;53.178;5.846;2022-10-31T03:32:44;9.30;99.90
54680;DHT22;40578;53.178;5.846;2022-10-31T03:35:11;9.90;99.90
54680;DHT22;40578;53.178;5.846;2022-10-31T03:37:39;9.80;99.90
54680;DHT22;40578;53.178;5.846;2022-10-31T03:40:07;10.00;99.90
54680;DHT22;40578;53.178;5.846;2022-10-31T03:42:39;9.70;99.90
54680;DHT22;40578;53.178;5.846;2022-10-31T03:45:09;9.30;99.90
54680;DHT22;40578;53.178;5.846;2022-10-31T03:47:37;9.30;99.90
54680;DHT22;40578;53.178;5.846;2022-10-31T03:50:05;9.30;99.90
54680;DHT22;40578;53.178;5.846;2022-10-31T03:52:55;9.90;99.90
54680;DHT22;40578;53.178;5.846;2022-10-31T03:55:31;9.70;99.90
54680;DHT22;40578;53.178;5.846;2022-10-31T03:58:09;9.70;99.90
54680;DHT22;40578;53.178;5.846;2022-10-31T04:00:39;9.00;99.90
54680;DHT22;40578;53.178;5.846;2022-10-31T04:03:14;9.50;99.90
54680;DHT22;40578;53.178;5.846;2022-10-31T04:05:40;9.50;99.90
54680;DHT22;40578;53.178;5.846;2022-10-31T04:08:07;8.90;99.90
54680;DHT22;40578;53.178;5.846;2022-10-31T04:10:36;9.40;99.90
54680;DHT22;40578;53.178;5.846;2022-10-31T04:13:14;8.80;99.90
54680;DHT22;40578;53.178;5.846;2022-10-31T04:15:42;9.00;99.90
54680;DHT22;40578;53.178;5.846;2022-10-31T04:18:08;8.80;99.90
54680;DHT22;40578;53.178;5.846;2022-10-31T04:20:37;9.30;99.90
54680;DHT22;40578;53.178;5.846;2022-10-31T04:23:03;9.30;99.90
54680;DHT22;40578;53.178;5.846;2022-10-31T04:25:29;8.80;99.90
54680;DHT22;40578;53.178;5.846;2022-10-31T04:27:55;8.70;99.90
54680;DHT22;40578;53.178;5.846;2022-10-31T04:30:21;8.80;99.90
54680;DHT22;40578;53.178;5.846;2022-10-31T04:32:47;9.10;99.90
54680;DHT22;40578;53.178;5.846;2022-10-31T04:35:12;8.60;99.90
54680;DHT22;40578;53.178;5.846;2022-10-31T04:37:38;8.50;99.90
54680;DHT22;40578;53.178;5.846;2022-10-31T04:40:04;8.50;99.90
54680;DHT22;40578;53.178;5.846;2022-10-31T04:42:30;9.00;99.90
54680;DHT22;40578;53.178;5.846;2022-10-31T04:44:56;9.10;99.90
54680;DHT22;40578;53.178;5.846;2022-10-31T04:47:21;8.70;99.90
54680;DHT22;40578;53.178;5.846;2022-10-31T04:49:47;9.20;99.90
54680;DHT22;40578;53.178;5.846;2022-10-31T04:52:13;9.10;99.90
54680;DHT22;40578;53.178;5.846;2022-10-31T04:54:38;8.90;99.90
54680;DHT22;40578;53.178;5.846;2022-10-31T04:57:04;8.60;99.90
54680;DHT22;40578;53.178;5.846;2022-10-31T04:59:29;9.10;99.90
54680;DHT22;40578;53.178;5.846;2022-10-31T05:01:55;8.60;99.90
54680;DHT22;40578;53.178;5.846;2022-10-31T05:04:21;9.40;99.90
54680;DHT22;40578;53.178;5.846;2022-10-31T05:06:46;8.70;99.90
54680;DHT22;40578;53.178;5.846;2022-10-31T05:09:12;8.80;99.90
54680;DHT22;40578;53.178;5.846;2022-10-31T05:11:37;8.60;99.90
54680;DHT22;40578;53.178;5.846;2022-10-31T05:14:03;9.90;99.90
54680;DHT22;40578;53.178;5.846;2022-10-31T05:16:28;9.00;99.90
54680;DHT22;40578;53.178;5.846;2022-10-31T05:18:54;8.50;99.90
54680;DHT22;40578;53.178;5.846;2022-10-31T05:21:20;9.00;99.90
54680;DHT22;40578;53.178;5.846;2022-10-31T05:23:45;9.00;99.90
54680;DHT22;40578;53.178;5.846;2022-10-31T05:26:11;9.00;99.90
54680;DHT22;40578;53.178;5.846;2022-10-31T05:28:36;9.00;99.90
54680;DHT22;40578;53.178;5.846;2022-10-31T05:31:02;9.00;99.90
54680;DHT22;40578;53.178;5.846;2022-10-31T05:33:28;8.70;99.90
54680;DHT22;40578;53.178;5.846;2022-10-31T05:35:54;9.00;99.90
54680;DHT22;40578;53.178;5.846;2022-10-31T05:38:19;8.40;99.90
54680;DHT22;40578;53.178;5.846;2022-10-31T05:40:45;8.30;99.90
54680;DHT22;40578;53.178;5.846;2022-10-31T05:43:10;8.50;99.90
54680;DHT22;40578;53.178;5.846;2022-10-31T05:45:36;8.10;99.90
54680;DHT22;40578;53.178;5.846;2022-10-31T05:48:02;8.80;99.90
54680;DHT22;40578;53.178;5.846;2022-10-31T05:50:30;8.70;99.90
54680;DHT22;40578;53.178;5.846;2022-10-31T05:52:57;8.10;99.90
54680;DHT22;40578;53.178;5.846;2022-10-31T05:55:23;8.80;99.90
54680;DHT22;40578;53.178;5.846;2022-10-31T05:57:50;8.80;99.90
54680;DHT22;40578;53.178;5.846;2022-10-31T06:00:16;8.50;99.90
54680;DHT22;40578;53.178;5.846;2022-10-31T06:02:42;9.00;99.90
54680;DHT22;40578;53.178;5.846;2022-10-31T06:05:08;9.00;99.90
54680;DHT22;40578;53.178;5.846;2022-10-31T06:07:34;8.30;99.90
54680;DHT22;40578;53.178;5.846;2022-10-31T06:10:01;8.80;99.90
54680;DHT22;40578;53.178;5.846;2022-10-31T06:12:27;8.30;99.90
54680;DHT22;40578;53.178;5.846;2022-10-31T06:14:52;8.20;99.90
54680;DHT22;40578;53.178;5.846;2022-10-31T06:17:18;8.40;99.90
54680;DHT22;40578;53.178;5.846;2022-10-31T06:19:43;8.80;99.90
54680;DHT22;40578;53.178;5.846;2022-10-31T06:22:09;8.20;99.90
54680;DHT22;40578;53.178;5.846;2022-10-31T06:24:37;8.30;99.90
54680;DHT22;40578;53.178;5.846;2022-10-31T06:27:03;8.70;99.90
54680;DHT22;40578;53.178;5.846;2022-10-31T06:29:29;8.30;99.90
54680;DHT22;40578;53.178;5.846;2022-10-31T06:31:54;8.90;99.90
54680;DHT22;40578;53.178;5.846;2022-10-31T06:34:20;8.70;99.90
54680;DHT22;40578;53.178;5.846;2022-10-31T06:36:46;8.30;99.90
54680;DHT22;40578;53.178;5.846;2022-10-31T06:39:12;8.20;99.90
54680;DHT22;40578;53.178;5.846;2022-10-31T06:41:38;9.00;99.90
54680;DHT22;40578;53.178;5.846;2022-10-31T06:44:05;8.70;99.90
54680;DHT22;40578;53.178;5.846;2022-10-31T06:46:31;8.30;99.90
54680;DHT22;40578;53.178;5.846;2022-10-31T06:48:57;9.10;99.90
54680;DHT22;40578;53.178;5.846;2022-10-31T06:51:23;9.00;99.90
54680;DHT22;40578;53.178;5.846;2022-10-31T06:53:48;8.40;99.90
54680;DHT22;40578;53.178;5.846;2022-10-31T06:56:14;9.00;99.90
54680;DHT22;40578;53.178;5.846;2022-10-31T06:58:41;8.50;99.90
54680;DHT22;40578;53.178;5.846;2022-10-31T07:01:07;9.10;99.90
54680;DHT22;40578;53.178;5.846;2022-10-31T07:03:32;9.00;99.90
54680;DHT22;40578;53.178;5.846;2022-10-31T07:05:58;8.90;99.90
54680;DHT22;40578;53.178;5.846;2022-10-31T07:08:24;8.40;99.90
54680;DHT22;40578;53.178;5.846;2022-10-31T07:10:55;8.30;99.90
54680;DHT22;40578;53.178;5.846;2022-10-31T07:13:22;9.10;99.90
54680;DHT22;40578;53.178;5.846;2022-10-31T07:15:55;8.50;99.90
54680;DHT22;40578;53.178;5.846;2022-10-31T07:18:21;9.00;99.90
54680;DHT22;40578;53.178;5.846;2022-10-31T07:20:47;8.80;99.90
54680;DHT22;40578;53.178;5.846;2022-10-31T07:23:13;8.40;99.90
54680;DHT22;40578;53.178;5.846;2022-10-31T07:25:39;8.40;99.90
54680;DHT22;40578;53.178;5.846;2022-10-31T07:28:06;9.30;99.90
54680;DHT22;40578;53.178;5.846;2022-10-31T07:30:31;8.50;99.90
54680;DHT22;40578;53.178;5.846;2022-10-31T07:32:57;9.00;99.90
54680;DHT22;40578;53.178;5.846;2022-10-31T07:35:26;9.10;99.90
54680;DHT22;40578;53.178;5.846;2022-10-31T07:37:52;9.10;99.90
54680;DHT22;40578;53.178;5.846;2022-10-31T07:40:19;9.00;99.90
54680;DHT22;40578;53.178;5.846;2022-10-31T07:42:47;9.40;99.90
54680;DHT22;40578;53.178;5.846;2022-10-31T07:45:17;9.10;99.90
54680;DHT22;40578;53.178;5.846;2022-10-31T07:47:46;9.60;99.90
54680;DHT22;40578;53.178;5.846;2022-10-31T07:50:17;8.70;99.90
54680;DHT22;40578;53.178;5.846;2022-10-31T07:52:43;9.20;99.90
54680;DHT22;40578;53.178;5.846;2022-10-31T07:55:09;9.40;99.90
54680;DHT22;40578;53.178;5.846;2022-10-31T07:57:35;9.10;99.90
54680;DHT22;40578;53.178;5.846;2022-10-31T08:00:09;9.40;99.90
54680;DHT22;40578;53.178;5.846;2022-10-31T08:02:35;9.60;99.90
54680;DHT22;40578;53.178;5.846;2022-10-31T08:05:01;8.90;99.90
54680;DHT22;40578;53.178;5.846;2022-10-31T08:07:35;9.20;99.90
54680;DHT22;40578;53.178;5.846;2022-10-31T08:10:00;9.30;99.90
54680;DHT22;40578;53.178;5.846;2022-10-31T08:12:26;9.80;99.90
54680;DHT22;40578;53.178;5.846;2022-10-31T08:14:51;9.20;99.90
54680;DHT22;40578;53.178;5.846;2022-10-31T08:17:17;9.10;99.90
54680;DHT22;40578;53.178;5.846;2022-10-31T08:19:42;9.80;99.90
54680;DHT22;40578;53.178;5.846;2022-10-31T08:22:08;9.30;99.90
54680;DHT22;40578;53.178;5.846;2022-10-31T08:24:34;9.90;99.90
54680;DHT22;40578;53.178;5.846;2022-10-31T08:26:59;10.10;99.90
54680;DHT22;40578;53.178;5.846;2022-10-31T08:29:25;10.10;99.90
54680;DHT22;40578;53.178;5.846;2022-10-31T08:31:50;9.50;99.90
54680;DHT22;40578;53.178;5.846;2022-10-31T08:34:16;10.20;99.90
54680;DHT22;40578;53.178;5.846;2022-10-31T08:36:42;10.50;99.90
54680;DHT22;40578;53.178;5.846;2022-10-31T08:39:10;10.40;99.90
54680;DHT22;40578;53.178;5.846;2022-10-31T08:41:35;10.10;99.90
54680;DHT22;40578;53.178;5.846;2022-10-31T08:44:01;10.70;99.90
54680;DHT22;40578;53.178;5.846;2022-10-31T08:46:27;10.70;99.90
54680;DHT22;40578;53.178;5.846;2022-10-31T08:48:53;10.70;99.90
54680;DHT22;40578;53.178;5.846;2022-10-31T08:51:18;9.80;99.90
54680;DHT22;40578;53.178;5.846;2022-10-31T08:53:44;10.50;99.90
54680;DHT22;40578;53.178;5.846;2022-10-31T08:56:09;11.10;99.90
54680;DHT22;40578;53.178;5.846;2022-10-31T08:58:35;11.30;99.90
54680;DHT22;40578;53.178;5.846;2022-10-31T09:01:01;10.00;99.90
54680;DHT22;40578;53.178;5.846;2022-10-31T09:03:29;10.50;99.90
54680;DHT22;40578;53.178;5.846;2022-10-31T09:05:57;10.80;99.90
54680;DHT22;40578;53.178;5.846;2022-10-31T09:08:23;11.20;99.90
54680;DHT22;40578;53.178;5.846;2022-10-31T09:10:49;10.40;99.90
54680;DHT22;40578;53.178;5.846;2022-10-31T09:13:17;11.10;99.90
54680;DHT22;40578;53.178;5.846;2022-10-31T09:15:45;11.50;99.90
54680;DHT22;40578;53.178;5.846;2022-10-31T09:18:13;10.90;99.90
54680;DHT22;40578;53.178;5.846;2022-10-31T09:20:40;10.70;99.90
54680;DHT22;40578;53.178;5.846;2022-10-31T09:23:09;11.80;99.90
54680;DHT22;40578;53.178;5.846;2022-10-31T09:25:35;11.80;99.90
54680;DHT22;40578;53.178;5.846;2022-10-31T09:28:03;10.80;99.90
54680;DHT22;40578;53.178;5.846;2022-10-31T09:30:31;12.00;99.90
54680;DHT22;40578;53.178;5.846;2022-10-31T09:32:58;12.20;99.90
54680;DHT22;40578;53.178;5.846;2022-10-31T09:35:24;12.00;99.90
54680;DHT22;40578;53.178;5.846;2022-10-31T09:38:00;12.10;99.90
54680;DHT22;40578;53.178;5.846;2022-10-31T09:40:40;12.00;99.90
54680;DHT22;40578;53.178;5.846;2022-10-31T09:43:25;12.10;99.90
54680;DHT22;40578;53.178;5.846;2022-10-31T09:46:09;11.20;99.90
54680;DHT22;40578;53.178;5.846;2022-10-31T09:51:24;11.90;99.90
54680;DHT22;40578;53.178;5.846;2022-10-31T09:53:59;11.40;99.90
54680;DHT22;40578;53.178;5.846;2022-10-31T09:56:27;11.70;99.90
54680;DHT22;40578;53.178;5.846;2022-10-31T09:58:57;12.60;99.90
54680;DHT22;40578;53.178;5.846;2022-10-31T10:04:31;11.80;99.90
54680;DHT22;40578;53.178;5.846;2022-10-31T10:06:58;12.20;99.90
54680;DHT22;40578;53.178;5.846;2022-10-31T10:09:25;11.40;99.90
54680;DHT22;40578;53.178;5.846;2022-10-31T10:14:49;11.50;99.90
54680;DHT22;40578;53.178;5.846;2022-10-31T10:25:14;12.40;99.90
54680;DHT22;40578;53.178;5.846;2022-10-31T10:30:32;12.50;99.90
54680;DHT22;40578;53.178;5.846;2022-10-31T10:33:55;12.60;99.90
54680;DHT22;40578;53.178;5.846;2022-10-31T10:36:05;11.80;99.90
54680;DHT22;40578;53.178;5.846;2022-10-31T10:38:38;11.90;99.90
54680;DHT22;40578;53.178;5.846;2022-10-31T10:41:14;11.90;99.90
54680;DHT22;40578;53.178;5.846;2022-10-31T10:43:41;13.00;99.90
54680;DHT22;40578;53.178;5.846;2022-10-31T10:46:19;12.10;99.90
54680;DHT22;40578;53.178;5.846;2022-10-31T11:00:22;12.50;99.90
54680;DHT22;40578;53.178;5.846;2022-10-31T11:02:48;13.50;99.90
54680;DHT22;40578;53.178;5.846;2022-10-31T11:05:24;13.60;99.90
54680;DHT22;40578;53.178;5.846;2022-10-31T11:07:50;13.50;99.90
54680;DHT22;40578;53.178;5.846;2022-10-31T11:10:17;12.70;99.90
54680;DHT22;40578;53.178;5.846;2022-10-31T11:12:45;13.10;99.90
54680;DHT22;40578;53.178;5.846;2022-10-31T11:15:23;12.80;99.90
54680;DHT22;40578;53.178;5.846;2022-10-31T11:17:54;14.10;99.90
54680;DHT22;40578;53.178;5.846;2022-10-31T11:23:22;13.60;99.90
54680;DHT22;40578;53.178;5.846;2022-10-31T11:26:05;13.90;99.90
54680;DHT22;40578;53.178;5.846;2022-10-31T11:28:32;14.00;99.90
54680;DHT22;40578;53.178;5.846;2022-10-31T11:31:05;14.00;99.90
54680;DHT22;40578;53.178;5.846;2022-10-31T11:33:54;14.00;99.90
54680;DHT22;40578;53.178;5.846;2022-10-31T11:36:25;13.30;99.90
54680;DHT22;40578;53.178;5.846;2022-10-31T11:38:52;14.10;99.90
54680;DHT22;40578;53.178;5.846;2022-10-31T11:41:20;13.60;99.90
54680;DHT22;40578;53.178;5.846;2022-10-31T11:43:53;13.80;99.90
54680;DHT22;40578;53.178;5.846;2022-10-31T11:48:58;14.20;99.90
54680;DHT22;40578;53.178;5.846;2022-10-31T11:51:28;14.10;99.90
54680;DHT22;40578;53.178;5.846;2022-10-31T11:53:57;13.40;99.90
54680;DHT22;40578;53.178;5.846;2022-10-31T11:56:24;14.30;99.90
54680;DHT22;40578;53.178;5.846;2022-10-31T11:59:02;14.30;99.90
54680;DHT22;40578;53.178;5.846;2022-10-31T12:01:30;13.80;99.90
54680;DHT22;40578;53.178;5.846;2022-10-31T12:04:09;14.10;99.90
54680;DHT22;40578;53.178;5.846;2022-10-31T12:06:40;13.70;99.90
54680;DHT22;40578;53.178;5.846;2022-10-31T12:09:24;14.00;99.90
54680;DHT22;40578;53.178;5.846;2022-10-31T12:17:11;14.00;99.90
54680;DHT22;40578;53.178;5.846;2022-10-31T12:19:42;13.60;99.90
54680;DHT22;40578;53.178;5.846;2022-10-31T12:22:25;13.90;99.90
54680;DHT22;40578;53.178;5.846;2022-10-31T12:25:08;13.70;99.90
54680;DHT22;40578;53.178;5.846;2022-10-31T12:30:59;14.20;99.90
54680;DHT22;40578;53.178;5.846;2022-10-31T12:33:37;14.20;99.90
54680;DHT22;40578;53.178;5.846;2022-10-31T12:41:32;13.50;99.90
54680;DHT22;40578;53.178;5.846;2022-10-31T12:50:27;13.60;99.90
54680;DHT22;40578;53.178;5.846;2022-10-31T12:58:43;13.80;99.90
54680;DHT22;40578;53.178;5.846;2022-10-31T13:01:17;14.50;99.90
54680;DHT22;40578;53.178;5.846;2022-10-31T13:06:40;14.20;99.90
54680;DHT22;40578;53.178;5.846;2022-10-31T13:09:11;14.70;99.90
54680;DHT22;40578;53.178;5.846;2022-10-31T13:11:42;14.60;99.90
54680;DHT22;40578;53.178;5.846;2022-10-31T13:14:34;14.70;99.90
54680;DHT22;40578;53.178;5.846;2022-10-31T13:17:01;14.80;99.90
54680;DHT22;40578;53.178;5.846;2022-10-31T13:19:47;14.90;99.90
54680;DHT22;40578;53.178;5.846;2022-10-31T13:22:20;14.90;99.90
54680;DHT22;40578;53.178;5.846;2022-10-31T13:27:50;15.00;99.90
54680;DHT22;40578;53.178;5.846;2022-10-31T13:30:20;15.00;99.90
54680;DHT22;40578;53.178;5.846;2022-10-31T13:32:51;14.60;99.90
54680;DHT22;40578;53.178;5.846;2022-10-31T13:35:38;14.70;99.90
54680;DHT22;40578;53.178;5.846;2022-10-31T13:38:18;14.80;99.90
54680;DHT22;40578;53.178;5.846;2022-10-31T13:40:52;14.70;99.90
54680;DHT22;40578;53.178;5.846;2022-10-31T13:43:31;14.70;99.90
54680;DHT22;40578;53.178;5.846;2022-10-31T13:46:00;14.70;80.80
54680;DHT22;40578;53.178;5.846;2022-10-31T13:50:58;14.90;29.60
54680;DHT22;40578;53.178;5.846;2022-10-31T13:53:37;15.00;89.10
54680;DHT22;40578;53.178;5.846;2022-10-31T13:58:34;14.40;90.90
54680;DHT22;40578;53.178;5.846;2022-10-31T14:03:37;14.20;99.90
54680;DHT22;40578;53.178;5.846;2022-10-31T14:06:04;14.60;99.90
54680;DHT22;40578;53.178;5.846;2022-10-31T14:08:34;14.60;99.90
54680;DHT22;40578;53.178;5.846;2022-10-31T14:11:00;14.70;99.90
54680;DHT22;40578;53.178;5.846;2022-10-31T14:13:38;14.50;99.90
54680;DHT22;40578;53.178;5.846;2022-10-31T14:16:24;14.60;99.90
54680;DHT22;40578;53.178;5.846;2022-10-31T14:19:07;14.50;99.90
54680;DHT22;40578;53.178;5.846;2022-10-31T14:21:44;14.90;99.90
54680;DHT22;40578;53.178;5.846;2022-10-31T14:24:33;14.90;99.90
54680;DHT22;40578;53.178;5.846;2022-10-31T14:27:02;14.90;99.90
54680;DHT22;40578;53.178;5.846;2022-10-31T14:29:33;14.60;99.90
54680;DHT22;40578;53.178;5.846;2022-10-31T14:34:57;14.40;99.90
54680;DHT22;40578;53.178;5.846;2022-10-31T14:40:18;14.70;99.90
54680;DHT22;40578;53.178;5.846;2022-10-31T14:43:05;14.30;99.90
54680;DHT22;40578;53.178;5.846;2022-10-31T14:45:43;14.40;99.90
54680;DHT22;40578;53.178;5.846;2022-10-31T14:50:59;14.70;99.90
54680;DHT22;40578;53.178;5.846;2022-10-31T14:53:27;14.20;99.90
54680;DHT22;40578;53.178;5.846;2022-10-31T14:55:55;14.20;99.90
54680;DHT22;40578;53.178;5.846;2022-10-31T14:58:44;14.60;99.90
54680;DHT22;40578;53.178;5.846;2022-10-31T15:01:24;14.20;99.90
54680;DHT22;40578;53.178;5.846;2022-10-31T15:03:50;14.30;99.90
54680;DHT22;40578;53.178;5.846;2022-10-31T15:06:20;14.50;99.90
54680;DHT22;40578;53.178;5.846;2022-10-31T15:08:53;14.30;99.90
54680;DHT22;40578;53.178;5.846;2022-10-31T15:11:25;14.60;99.90
54680;DHT22;40578;53.178;5.846;2022-10-31T15:13:57;14.50;99.90
54680;DHT22;40578;53.178;5.846;2022-10-31T15:16:25;14.10;99.90
54680;DHT22;40578;53.178;5.846;2022-10-31T15:19:00;14.50;99.90
54680;DHT22;40578;53.178;5.846;2022-10-31T15:21:28;14.00;99.90
54680;DHT22;40578;53.178;5.846;2022-10-31T15:23:58;14.40;99.90
54680;DHT22;40578;53.178;5.846;2022-10-31T15:26:33;14.00;99.90
54680;DHT22;40578;53.178;5.846;2022-10-31T15:31:25;14.40;99.90
54680;DHT22;40578;53.178;5.846;2022-10-31T15:33:53;14.00;99.90
54680;DHT22;40578;53.178;5.846;2022-10-31T15:36:25;14.30;99.90
54680;DHT22;40578;53.178;5.846;2022-10-31T15:38:52;14.40;99.90
54680;DHT22;40578;53.178;5.846;2022-10-31T15:41:26;13.90;99.90
54680;DHT22;40578;53.178;5.846;2022-10-31T15:43:54;14.00;99.90
54680;DHT22;40578;53.178;5.846;2022-10-31T15:46:20;14.20;99.90
54680;DHT22;40578;53.178;5.846;2022-10-31T15:48:47;14.30;99.90
54680;DHT22;40578;53.178;5.846;2022-10-31T15:51:13;13.90;99.90
54680;DHT22;40578;53.178;5.846;2022-10-31T15:53:46;13.80;99.90
54680;DHT22;40578;53.178;5.846;2022-10-31T15:56:21;14.30;99.90
54680;DHT22;40578;53.178;5.846;2022-10-31T15:58:50;14.20;99.90
54680;DHT22;40578;53.178;5.846;2022-10-31T16:01:31;14.40;99.90
54680;DHT22;40578;53.178;5.846;2022-10-31T16:04:04;14.10;99.90
54680;DHT22;40578;53.178;5.846;2022-10-31T16:06:32;13.90;99.90
54680;DHT22;40578;53.178;5.846;2022-10-31T16:08:58;14.20;99.90
54680;DHT22;40578;53.178;5.846;2022-10-31T16:11:36;13.90;99.90
54680;DHT22;40578;53.178;5.846;2022-10-31T16:14:17;13.90;99.90
54680;DHT22;40578;53.178;5.846;2022-10-31T16:16:48;14.20;99.90
54680;DHT22;40578;53.178;5.846;2022-10-31T16:19:24;14.00;99.90
54680;DHT22;40578;53.178;5.846;2022-10-31T16:21:56;13.80;99.90
54680;DHT22;40578;53.178;5.846;2022-10-31T16:24:31;14.10;99.90
54680;DHT22;40578;53.178;5.846;2022-10-31T16:27:15;14.20;99.90
54680;DHT22;40578;53.178;5.846;2022-10-31T16:29:44;14.00;99.90
54680;DHT22;40578;53.178;5.846;2022-10-31T16:32:52;13.60;99.90
54680;DHT22;40578;53.178;5.846;2022-10-31T16:35:38;14.10;99.90
54680;DHT22;40578;53.178;5.846;2022-10-31T16:38:05;14.00;99.90
54680;DHT22;40578;53.178;5.846;2022-10-31T16:40:31;14.10;99.90
54680;DHT22;40578;53.178;5.846;2022-10-31T16:42:58;13.90;99.90
54680;DHT22;40578;53.178;5.846;2022-10-31T16:45:26;13.50;99.90
54680;DHT22;40578;53.178;5.846;2022-10-31T16:47:52;13.60;99.90
54680;DHT22;40578;53.178;5.846;2022-10-31T16:50:21;13.80;99.90
54680;DHT22;40578;53.178;5.846;2022-10-31T16:52:47;13.70;99.90
54680;DHT22;40578;53.178;5.846;2022-10-31T16:55:14;13.80;99.90
54680;DHT22;40578;53.178;5.846;2022-10-31T16:57:55;14.00;99.90
54680;DHT22;40578;53.178;5.846;2022-10-31T17:00:23;13.80;99.90
54680;DHT22;40578;53.178;5.846;2022-10-31T17:02:51;13.60;99.90
54680;DHT22;40578;53.178;5.846;2022-10-31T17:05:18;13.60;99.90
54680;DHT22;40578;53.178;5.846;2022-10-31T17:07:45;13.60;99.90
54680;DHT22;40578;53.178;5.846;2022-10-31T17:10:12;13.70;99.90
54680;DHT22;40578;53.178;5.846;2022-10-31T17:12:43;13.70;99.90
54680;DHT22;40578;53.178;5.846;2022-10-31T17:15:23;13.90;99.90
54680;DHT22;40578;53.178;5.846;2022-10-31T17:17:49;14.10;99.90
54680;DHT22;40578;53.178;5.846;2022-10-31T17:20:25;13.80;99.90
54680;DHT22;40578;53.178;5.846;2022-10-31T17:22:52;13.70;99.90
54680;DHT22;40578;53.178;5.846;2022-10-31T17:25:23;14.10;99.90
54680;DHT22;40578;53.178;5.846;2022-10-31T17:27:50;13.70;99.90
54680;DHT22;40578;53.178;5.846;2022-10-31T17:30:17;14.20;99.90
54680;DHT22;40578;53.178;5.846;2022-10-31T17:32:43;14.20;99.90
54680;DHT22;40578;53.178;5.846;2022-10-31T17:35:10;13.70;99.90